Staples, Texas
Current Conditions -  °F | °C
As of 10:15 PM on Thursday 27 Nov 2014 (Local Time) from KHYI Reporting Station
Clear Clear  
Wind Chill: 43°   Ceiling: Unl
Heat Index: 43°   Visibility: 10mi
Dew Point: 34°   Wind: 3mph
Humidity: 70%   Direction: 310°NW
Pressure: 30.41"   Gusts: NA
Location:  29.78°N, 97.84°W
Report Text: KHYI 280415Z 31003KT 10SM CLR 06/01 A3041 RMK AO1
Loading
Personal Weather Stations






























Interactive Weather Map New forecast layout! Learn more

10-Day Weather Forecast

Advertisements
Track Severe Weather on mobile